createdAt,value
2019-04-07T00:00:14.329Z,12.05
2019-04-07T00:02:45.299Z,12.11
2019-04-07T00:05:17.306Z,11.94
2019-04-07T00:07:49.491Z,11.83
2019-04-07T00:10:21.879Z,11.82
2019-04-07T00:12:51.070Z,11.41
2019-04-07T00:15:24.180Z,11.54
2019-04-07T00:17:53.371Z,10.71
2019-04-07T00:20:26.849Z,11.08
2019-04-07T00:22:56.074Z,10.64
2019-04-07T00:25:34.306Z,10.86
2019-04-07T00:28:04.033Z,11.25
2019-04-07T00:30:39.990Z,10.87
2019-04-07T00:33:09.315Z,11.32
2019-04-07T00:35:38.919Z,11.37
2019-04-07T00:38:09.733Z,11.66
2019-04-07T00:40:40.714Z,11.57
2019-04-07T00:43:13.624Z,11.23
2019-04-07T00:45:42.909Z,11.26
2019-04-07T00:48:12.285Z,11.23
2019-04-07T00:50:41.452Z,10.42
2019-04-07T00:53:11.010Z,10.54
2019-04-07T00:55:40.843Z,10.12
2019-04-07T00:58:10.200Z,10.23
2019-04-07T01:00:40.665Z,10.10
2019-04-07T01:03:11.546Z,10.26
2019-04-07T01:05:42.799Z,10.24
2019-04-07T01:08:14.226Z,10.13
2019-04-07T01:10:43.406Z,10.06
2019-04-07T01:13:12.487Z,9.80
2019-04-07T01:15:41.840Z,0.31
2019-04-07T01:18:13.134Z,9.28
2019-04-07T01:20:46.923Z,9.30
2019-04-07T01:23:18.194Z,9.16
2019-04-07T01:25:58.490Z,9.24
2019-04-07T01:28:36.281Z,9.65
2019-04-07T01:31:05.767Z,10.11
2019-04-07T01:33:40.919Z,9.79
2019-04-07T01:36:13.598Z,9.97
2019-04-07T01:38:46.080Z,10.09
2019-04-07T01:41:29.466Z,10.15
2019-04-07T01:44:06.698Z,9.72
2019-04-07T01:46:56.154Z,9.45
2019-04-07T01:49:36.389Z,9.89
2019-04-07T01:52:21.100Z,9.71
2019-04-07T01:55:18.091Z,9.79
2019-04-07T01:58:07.853Z,10.16
2019-04-07T02:00:56.593Z,10.28
2019-04-07T02:03:39.893Z,10.46
2019-04-07T02:06:17.876Z,10.40
2019-04-07T02:09:04.970Z,9.61
2019-04-07T02:11:51.905Z,9.06
2019-04-07T02:14:35.522Z,8.36
2019-04-07T02:17:31.749Z,8.03
2019-04-07T02:20:10.295Z,7.96
2019-04-07T02:22:47.697Z,8.20
2019-04-07T02:25:42.758Z,8.71
2019-04-07T02:28:29.845Z,9.10
2019-04-07T02:31:23.964Z,9.16
2019-04-07T02:34:11.785Z,9.23
2019-04-07T02:36:48.370Z,9.30
2019-04-07T02:39:42.426Z,9.26
2019-04-07T02:42:32.224Z,9.37
2019-04-07T02:45:36.619Z,10.26
2019-04-07T02:48:13.856Z,9.82
2019-04-07T02:50:48.498Z,10.01
2019-04-07T02:53:45.489Z,10.27
2019-04-07T02:56:26.911Z,10.77
2019-04-07T02:59:14.575Z,10.99
2019-04-07T03:02:08.160Z,10.99
2019-04-07T03:04:56.649Z,11.04
2019-04-07T03:07:47.829Z,10.31
2019-04-07T03:10:33.391Z,10.07
2019-04-07T03:13:19.049Z,9.68
2019-04-07T03:15:55.013Z,9.34
2019-04-07T03:18:52.842Z,10.27
2019-04-07T03:21:44.680Z,10.41
2019-04-07T03:24:33.520Z,10.59
2019-04-07T03:27:24.047Z,10.75
2019-04-07T03:30:06.022Z,11.03
2019-04-07T03:33:13.229Z,10.53
2019-04-07T03:35:56.842Z,10.01
2019-04-07T03:38:43.002Z,10.34
2019-04-07T03:41:34.932Z,10.90
2019-04-07T03:44:18.619Z,10.97
2019-04-07T03:47:03.612Z,10.94
2019-04-07T03:49:55.065Z,10.08
2019-04-07T03:53:01.716Z,10.38
2019-04-07T03:55:54.637Z,10.64
2019-04-07T03:59:01.852Z,10.77
2019-04-07T04:01:48.108Z,10.63
2019-04-07T04:04:37.800Z,10.85
2019-04-07T04:07:22.398Z,10.28
2019-04-07T04:10:03.398Z,9.70
2019-04-07T04:12:53.023Z,9.98
2019-04-07T04:15:29.765Z,10.06
2019-04-07T04:17:59.171Z,9.89
2019-04-07T04:20:30.258Z,10.60
2019-04-07T04:22:59.759Z,10.68
2019-04-07T04:25:34.562Z,11.11
2019-04-07T04:28:07.820Z,11.27
2019-04-07T04:30:37.133Z,11.61
2019-04-07T04:33:06.414Z,11.66
2019-04-07T04:35:35.558Z,11.49
2019-04-07T04:38:04.602Z,11.78
2019-04-07T04:40:33.852Z,11.58
2019-04-07T04:43:02.946Z,11.25
2019-04-07T04:45:34.127Z,10.89
2019-04-07T04:48:05.601Z,10.92
2019-04-07T04:50:35.611Z,11.01
2019-04-07T04:53:04.699Z,11.04
2019-04-07T04:55:35.045Z,10.97
2019-04-07T04:58:04.494Z,10.41
2019-04-07T05:00:34.402Z,11.37
2019-04-07T05:03:04.638Z,10.85
2019-04-07T05:05:35.742Z,10.45
2019-04-07T05:08:05.628Z,10.55
2019-04-07T05:10:35.851Z,10.85
2019-04-07T05:13:05.534Z,10.63
2019-04-07T05:15:35.129Z,10.94
2019-04-07T05:18:10.860Z,10.84
2019-04-07T05:20:43.217Z,10.81
2019-04-07T05:23:14.106Z,11.23
2019-04-07T05:25:43.879Z,11.89
2019-04-07T05:28:15.390Z,11.92
2019-04-07T05:30:48.067Z,11.96
2019-04-07T05:33:17.950Z,12.19
2019-04-07T05:35:46.992Z,12.41
2019-04-07T05:38:16.089Z,12.33
2019-04-07T05:40:45.166Z,12.53
2019-04-07T05:43:16.174Z,12.62
2019-04-07T05:45:45.544Z,12.84
2019-04-07T05:48:19.307Z,12.96
2019-04-07T05:50:48.808Z,13.14
2019-04-07T05:53:17.895Z,13.17
2019-04-07T05:55:47.558Z,13.20
2019-04-07T05:58:16.815Z,12.88
2019-04-07T06:00:48.607Z,12.96
2019-04-07T06:03:17.802Z,13.04
2019-04-07T06:05:48.253Z,13.02
2019-04-07T06:08:29.528Z,12.70
2019-04-07T06:10:57.869Z,12.36
2019-04-07T06:13:26.891Z,12.20
2019-04-07T06:15:57.531Z,11.93
2019-04-07T06:18:32.244Z,11.96
2019-04-07T06:20:58.519Z,11.40
2019-04-07T06:23:30.393Z,11.45
2019-04-07T06:25:59.458Z,11.69
2019-04-07T06:28:31.755Z,11.67
2019-04-07T06:31:03.162Z,12.31
2019-04-07T06:33:32.447Z,12.61
2019-04-07T06:36:01.536Z,2.78
2019-04-07T06:38:34.935Z,12.45
2019-04-07T06:41:08.657Z,12.34
2019-04-07T06:43:39.854Z,12.38
2019-04-07T06:46:30.635Z,12.62
2019-04-07T06:49:13.058Z,12.42
2019-04-07T06:52:04.642Z,13.08
2019-04-07T06:54:39.929Z,13.25
2019-04-07T06:57:21.785Z,13.45
2019-04-07T07:00:12.514Z,13.62
2019-04-07T07:03:11.621Z,13.81
2019-04-07T07:06:05.741Z,13.53
2019-04-07T07:08:59.075Z,14.02
2019-04-07T07:12:02.130Z,13.94
2019-04-07T07:14:54.979Z,13.46
2019-04-07T07:17:37.870Z,13.82
2019-04-07T07:20:45.208Z,13.44
2019-04-07T07:23:18.743Z,13.64
2019-04-07T07:25:48.593Z,13.40
2019-04-07T07:28:18.223Z,14.04
2019-04-07T07:30:51.881Z,13.65
2019-04-07T07:33:23.474Z,13.66
2019-04-07T07:35:52.741Z,13.08
2019-04-07T07:38:27.736Z,13.41
2019-04-07T07:41:00.094Z,13.45
2019-04-07T07:43:31.891Z,13.89
2019-04-07T07:46:05.758Z,13.04
2019-04-07T07:48:38.015Z,13.79
2019-04-07T07:51:12.945Z,13.75
2019-04-07T07:53:41.579Z,13.99
2019-04-07T07:56:13.611Z,14.05
2019-04-07T07:58:41.512Z,14.14
2019-04-07T08:01:13.845Z,14.08
2019-04-07T08:03:51.743Z,14.20
2019-04-07T08:06:22.712Z,14.36
2019-04-07T08:08:52.585Z,14.48
2019-04-07T08:11:21.918Z,14.80
2019-04-07T08:13:51.328Z,15.05
2019-04-07T08:16:29.484Z,14.53
2019-04-07T08:18:59.578Z,14.47
2019-04-07T08:21:29.131Z,14.28
2019-04-07T08:23:59.038Z,14.57
2019-04-07T08:26:28.925Z,14.31
2019-04-07T08:29:03.246Z,14.41
2019-04-07T08:31:33.757Z,14.43
2019-04-07T08:34:05.564Z,14.79
2019-04-07T08:36:35.754Z,14.93
2019-04-07T08:39:20.318Z,14.57
2019-04-07T08:41:42.228Z,14.55
2019-04-07T08:44:12.645Z,14.62
2019-04-07T08:46:44.206Z,14.88
2019-04-07T08:49:14.720Z,14.86
2019-04-07T08:51:43.919Z,14.82
2019-04-07T08:54:23.884Z,14.91
2019-04-07T08:56:56.303Z,14.70
2019-04-07T08:59:25.918Z,14.82
2019-04-07T09:01:55.797Z,14.99
2019-04-07T09:04:28.424Z,15.12
2019-04-07T09:07:00.685Z,15.30
2019-04-07T09:09:34.084Z,15.26
2019-04-07T09:11:59.509Z,15.22
2019-04-07T09:14:29.510Z,15.51
2019-04-07T09:17:32.186Z,15.24
2019-04-07T09:20:27.482Z,15.26
2019-04-07T09:23:09.195Z,15.28
2019-04-07T09:26:02.896Z,14.69
2019-04-07T09:28:53.426Z,15.52
2019-04-07T09:31:43.470Z,14.92
2019-04-07T09:34:25.153Z,14.96
2019-04-07T09:37:13.165Z,15.21
2019-04-07T09:40:05.564Z,15.48
2019-04-07T09:43:03.101Z,15.56
2019-04-07T09:45:51.864Z,15.46
2019-04-07T09:48:42.996Z,14.47
2019-04-07T09:51:52.857Z,15.01
2019-04-07T09:54:36.923Z,15.47
2019-04-07T09:57:40.829Z,15.60
2019-04-07T10:00:35.302Z,15.86
2019-04-07T10:03:23.379Z,16.03
2019-04-07T10:06:20.446Z,16.39
2019-04-07T10:09:14.581Z,16.21
2019-04-07T10:12:00.401Z,16.53
2019-04-07T10:14:48.846Z,15.96
2019-04-07T10:17:49.602Z,16.05
2019-04-07T10:20:36.878Z,16.74
2019-04-07T10:23:28.811Z,17.17
2019-04-07T10:26:24.689Z,17.56
2019-04-07T10:29:04.619Z,17.41
2019-04-07T10:31:51.879Z,16.60
2019-04-07T10:34:38.832Z,15.74
2019-04-07T10:37:32.213Z,16.80
2019-04-07T10:40:26.495Z,16.91
2019-04-07T10:43:19.607Z,17.28
2019-04-07T10:46:11.217Z,16.17
2019-04-07T10:49:00.281Z,15.98
2019-04-07T10:51:51.343Z,15.86
2019-04-07T10:54:43.810Z,16.50
2019-04-07T10:57:24.915Z,17.40
2019-04-07T11:00:17.977Z,17.34
2019-04-07T11:02:57.191Z,18.35
2019-04-07T11:05:44.782Z,17.61
2019-04-07T11:08:32.099Z,17.35
2019-04-07T11:11:23.193Z,17.22
2019-04-07T11:14:29.445Z,17.53
2019-04-07T11:17:08.110Z,17.20
2019-04-07T11:19:45.958Z,17.77
2019-04-07T11:22:33.783Z,17.39
2019-04-07T11:25:34.692Z,17.13
2019-04-07T11:28:24.140Z,16.84
2019-04-07T11:31:03.869Z,17.45
2019-04-07T11:33:50.381Z,17.53
2019-04-07T11:36:27.677Z,17.89
2019-04-07T11:39:19.223Z,18.25
2019-04-07T11:41:57.289Z,17.93
2019-04-07T11:44:37.523Z,17.36
2019-04-07T11:47:28.689Z,17.67
2019-04-07T11:50:28.802Z,18.29
2019-04-07T11:53:11.696Z,17.92
2019-04-07T11:56:09.896Z,17.94
2019-04-07T11:58:58.945Z,17.86
2019-04-07T12:01:56.709Z,17.78
2019-04-07T12:05:00.013Z,18.34
2019-04-07T12:08:01.725Z,17.88
2019-04-07T12:11:06.572Z,18.92
2019-04-07T12:13:56.763Z,18.46
2019-04-07T12:16:44.865Z,18.40
2019-04-07T12:19:36.734Z,18.06
2019-04-07T12:22:16.066Z,19.29
2019-04-07T12:25:16.994Z,19.57
2019-04-07T12:28:06.936Z,19.15
2019-04-07T12:31:08.589Z,19.45
2019-04-07T12:33:58.488Z,19.31
2019-04-07T12:37:03.907Z,19.33
2019-04-07T12:39:38.955Z,19.13
2019-04-07T12:42:40.299Z,19.20
2019-04-07T12:45:31.893Z,19.01
2019-04-07T12:48:30.670Z,19.12
2019-04-07T12:51:36.413Z,19.39
2019-04-07T12:54:31.851Z,19.30
2019-04-07T12:57:21.957Z,19.97
2019-04-07T13:00:02.503Z,18.84
2019-04-07T13:02:51.605Z,18.56
2019-04-07T13:05:39.200Z,18.75
2019-04-07T13:08:33.717Z,18.93
2019-04-07T13:11:38.648Z,18.59
2019-04-07T13:14:32.401Z,19.83
2019-04-07T13:17:21.444Z,20.27
2019-04-07T13:20:22.314Z,18.27
2019-04-07T13:23:01.827Z,17.60
2019-04-07T13:25:52.876Z,17.61
2019-04-07T13:31:31.874Z,18.03
2019-04-07T13:34:18.683Z,17.96
2019-04-07T13:37:18.877Z,18.11
2019-04-07T13:39:59.488Z,18.49
2019-04-07T13:42:42.830Z,18.25
2019-04-07T13:45:47.243Z,17.84
2019-04-07T13:48:41.191Z,18.14
2019-04-07T13:51:29.582Z,18.31
2019-04-07T13:54:30.820Z,17.73
2019-04-07T13:57:12.273Z,17.86
2019-04-07T13:59:48.877Z,17.76
2019-04-07T14:02:36.564Z,17.97
2019-04-07T14:05:14.958Z,17.77
2019-04-07T14:08:07.117Z,17.86
2019-04-07T14:11:08.431Z,17.56
2019-04-07T14:13:44.768Z,17.41
2019-04-07T14:16:32.319Z,17.29
2019-04-07T14:19:12.447Z,17.40
2019-04-07T14:22:03.268Z,17.12
2019-04-07T14:24:59.084Z,17.32
2019-04-07T14:27:43.884Z,17.06
2019-04-07T14:30:20.278Z,17.38
2019-04-07T14:33:11.192Z,17.46
2019-04-07T14:35:58.239Z,17.38
2019-04-07T14:38:56.010Z,17.10
2019-04-07T14:42:00.980Z,17.51
2019-04-07T14:44:44.664Z,17.34
2019-04-07T14:47:29.384Z,17.62
2019-04-07T14:50:13.069Z,17.81
2019-04-07T14:52:53.628Z,17.79
2019-04-07T14:55:45.167Z,17.70
2019-04-07T14:58:48.457Z,17.75
2019-04-07T15:01:39.658Z,17.84
2019-04-07T15:04:08.943Z,17.88
2019-04-07T15:06:42.357Z,17.67
2019-04-07T15:09:22.551Z,17.53
2019-04-07T15:12:15.876Z,17.69
2019-04-07T15:14:37.507Z,17.85
2019-04-07T15:17:12.044Z,17.76
2019-04-07T15:19:44.323Z,17.75
2019-04-07T15:22:13.481Z,17.81
2019-04-07T15:24:42.888Z,17.38
2019-04-07T15:27:17.521Z,17.17
2019-04-07T15:29:47.143Z,17.19
2019-04-07T15:32:21.159Z,17.36
2019-04-07T15:34:51.482Z,17.63
2019-04-07T15:37:29.259Z,17.47
2019-04-07T15:40:03.626Z,17.35
2019-04-07T15:42:40.399Z,17.16
2019-04-07T15:45:11.212Z,17.29
2019-04-07T15:47:37.088Z,17.32
2019-04-07T15:50:11.853Z,17.55
2019-04-07T15:52:44.310Z,17.51
2019-04-07T15:55:13.520Z,17.41
2019-04-07T15:57:44.281Z,17.72
2019-04-07T16:00:16.439Z,17.61
2019-04-07T16:02:49.260Z,17.58
2019-04-07T16:05:17.868Z,17.58
2019-04-07T16:07:52.754Z,17.35
2019-04-07T16:10:29.123Z,17.07
2019-04-07T16:13:00.115Z,17.59
2019-04-07T16:15:32.202Z,17.21
2019-04-07T16:18:08.588Z,17.59
2019-04-07T16:20:40.490Z,17.29
2019-04-07T16:23:12.805Z,17.50
2019-04-07T16:25:41.867Z,17.34
2019-04-07T16:28:15.975Z,17.15
2019-04-07T16:30:49.008Z,16.97
2019-04-07T16:33:17.771Z,17.08
2019-04-07T16:35:55.280Z,17.18
2019-04-07T16:38:22.625Z,17.28
2019-04-07T16:40:54.104Z,17.20
2019-04-07T16:43:26.162Z,17.49
2019-04-07T16:46:01.755Z,17.57
2019-04-07T16:48:36.042Z,17.53
2019-04-07T16:51:06.040Z,17.12
2019-04-07T16:53:37.931Z,17.46
2019-04-07T16:56:07.519Z,16.81
2019-04-07T16:58:39.143Z,16.72
2019-04-07T17:01:07.785Z,16.91
2019-04-07T17:03:39.854Z,17.49
2019-04-07T17:06:11.135Z,17.00
2019-04-07T17:08:43.401Z,16.89
2019-04-07T17:11:16.949Z,17.44
2019-04-07T17:13:47.594Z,17.16
2019-04-07T17:16:23.926Z,16.56
2019-04-07T17:18:56.291Z,16.92
2019-04-07T17:21:29.919Z,16.81
2019-04-07T17:24:01.395Z,17.15
2019-04-07T17:26:30.844Z,16.96
2019-04-07T17:28:59.985Z,17.42
2019-04-07T17:31:33.615Z,17.10
2019-04-07T17:34:07.370Z,17.23
2019-04-07T17:36:34.327Z,16.66
2019-04-07T17:39:11.781Z,16.76
2019-04-07T17:41:49.810Z,16.55
2019-04-07T17:44:28.617Z,16.57
2019-04-07T17:47:23.380Z,16.57
2019-04-07T17:50:14.718Z,16.43
2019-04-07T17:53:05.303Z,16.37
2019-04-07T17:55:52.706Z,16.10
2019-04-07T17:58:47.868Z,16.02
2019-04-07T18:01:41.382Z,15.77
2019-04-07T18:04:28.228Z,15.45
2019-04-07T18:07:18.960Z,15.66
2019-04-07T18:10:10.666Z,15.67
2019-04-07T18:12:55.974Z,15.76
2019-04-07T18:15:43.422Z,15.85
2019-04-07T18:18:36.722Z,15.70
2019-04-07T18:21:37.591Z,15.63
2019-04-07T18:24:20.659Z,15.47
2019-04-07T18:27:10.076Z,15.04
2019-04-07T18:29:49.168Z,15.03
2019-04-07T18:32:53.522Z,14.96
2019-04-07T18:36:05.057Z,14.92
2019-04-07T18:38:47.079Z,14.56
2019-04-07T18:41:36.482Z,14.26
2019-04-07T18:44:38.653Z,14.32
2019-04-07T18:47:28.115Z,14.27
2019-04-07T18:50:16.606Z,13.72
2019-04-07T18:53:03.858Z,13.80
2019-04-07T18:55:45.174Z,13.81
2019-04-07T18:58:33.298Z,13.85
2019-04-07T19:01:34.215Z,14.07
2019-04-07T19:04:35.965Z,13.75
2019-04-07T19:07:37.902Z,13.72
2019-04-07T19:10:25.429Z,13.44
2019-04-07T19:13:10.997Z,13.43
2019-04-07T19:16:04.364Z,13.20
2019-04-07T19:19:00.769Z,13.32
2019-04-07T19:21:45.077Z,13.46
2019-04-07T19:24:31.431Z,13.40
2019-04-07T19:27:23.252Z,13.32
2019-04-07T19:30:22.946Z,13.28
2019-04-07T19:33:24.553Z,13.83
2019-04-07T19:36:11.196Z,13.79
2019-04-07T19:39:14.739Z,13.49
2019-04-07T19:41:53.462Z,13.23
2019-04-07T19:44:42.881Z,13.01
2019-04-07T19:47:26.171Z,13.40
2019-04-07T19:50:13.417Z,13.31
2019-04-07T19:53:20.333Z,12.94
2019-04-07T19:56:12.270Z,11.99
2019-04-07T19:58:59.838Z,13.33
2019-04-07T20:01:51.110Z,13.34
2019-04-07T20:04:42.289Z,13.00
2019-04-07T20:07:17.916Z,13.47
2019-04-07T20:10:11.014Z,13.45
2019-04-07T20:13:14.246Z,13.22
2019-04-07T20:16:12.890Z,13.15
2019-04-07T20:18:59.577Z,12.81
2019-04-07T20:21:41.421Z,12.82
2019-04-07T20:24:38.035Z,12.84
2019-04-07T20:27:33.892Z,13.14
2019-04-07T20:30:25.404Z,12.77
2019-04-07T20:33:13.547Z,12.93
2019-04-07T20:35:52.159Z,13.08
2019-04-07T20:38:59.218Z,12.63
2019-04-07T20:41:38.671Z,13.16
2019-04-07T20:44:57.129Z,13.06
2019-04-07T20:47:36.199Z,13.18
2019-04-07T20:50:23.805Z,12.83
2019-04-07T20:53:13.375Z,12.67
2019-04-07T20:55:48.100Z,12.96
2019-04-07T20:58:53.894Z,13.25
2019-04-07T21:01:37.019Z,13.27
2019-04-07T21:04:24.001Z,12.97
2019-04-07T21:07:15.356Z,13.24
2019-04-07T21:10:21.467Z,12.97
2019-04-07T21:13:00.317Z,12.93
2019-04-07T21:15:40.033Z,12.81
2019-04-07T21:18:22.255Z,12.97
2019-04-07T21:21:12.295Z,12.66
2019-04-07T21:23:51.825Z,13.08
2019-04-07T21:26:33.517Z,13.32
2019-04-07T21:29:26.075Z,13.18
2019-04-07T21:32:18.817Z,13.60
2019-04-07T21:35:06.134Z,13.46
2019-04-07T21:37:56.256Z,13.43
2019-04-07T21:40:56.436Z,13.54
2019-04-07T21:43:34.000Z,13.90
2019-04-07T21:46:23.908Z,13.74
2019-04-07T21:49:11.932Z,13.88
2019-04-07T21:51:59.101Z,14.10
2019-04-07T21:54:44.185Z,13.77
2019-04-07T21:57:43.831Z,14.21
2019-04-07T22:00:43.822Z,13.64
2019-04-07T22:03:47.591Z,13.82
2019-04-07T22:06:39.839Z,13.48
2019-04-07T22:09:19.419Z,14.07
2019-04-07T22:11:49.437Z,13.76
2019-04-07T22:14:18.917Z,13.09
2019-04-07T22:16:51.275Z,13.29
2019-04-07T22:19:25.262Z,13.48
2019-04-07T22:21:56.899Z,13.20
2019-04-07T22:24:31.284Z,13.37
2019-04-07T22:26:57.502Z,13.31
2019-04-07T22:29:26.887Z,13.16
2019-04-07T22:31:59.800Z,13.22
2019-04-07T22:34:35.647Z,12.68
2019-04-07T22:37:10.116Z,12.72
2019-04-07T22:39:38.259Z,12.64
2019-04-07T22:42:12.811Z,12.57
2019-04-07T22:44:39.796Z,12.65
2019-04-07T22:47:10.897Z,12.94
2019-04-07T22:49:41.616Z,13.03
2019-04-07T22:52:11.833Z,13.04
2019-04-07T22:54:42.696Z,13.11
2019-04-07T22:57:16.304Z,12.68
2019-04-07T22:59:50.408Z,12.40
2019-04-07T23:02:25.387Z,12.68
2019-04-07T23:04:58.755Z,12.56
2019-04-07T23:07:29.687Z,12.50
2019-04-07T23:09:59.297Z,12.55
2019-04-07T23:12:30.538Z,12.50
2019-04-07T23:15:02.230Z,12.70
2019-04-07T23:17:32.208Z,12.60
2019-04-07T23:20:02.353Z,12.70
2019-04-07T23:22:31.495Z,10.66
2019-04-07T23:25:02.380Z,12.19
2019-04-07T23:27:36.040Z,11.84
2019-04-07T23:30:11.011Z,11.84
2019-04-07T23:32:41.738Z,11.59
2019-04-07T23:35:11.032Z,11.85
2019-04-07T23:37:43.757Z,12.19
2019-04-07T23:40:16.314Z,11.96
2019-04-07T23:42:45.437Z,12.27
2019-04-07T23:45:16.606Z,11.98
2019-04-07T23:47:46.922Z,11.82
2019-04-07T23:50:16.741Z,11.77
2019-04-07T23:52:45.955Z,11.77
2019-04-07T23:55:18.210Z,12.07
2019-04-07T23:57:47.285Z,11.87
